Bullsbrook Pearce Amo, Australia
Current Conditions -  °F | °C
As of 2:00 PM on Sunday 23 Nov 2014 (Local Time) from YPEA Reporting Station
Scattered Clouds Scattered Clouds  
Wind Chill: 72°   Ceiling: Unl
Heat Index: 72°   Visibility: NA
Dew Point: 46°   Wind: 17mph
Humidity: 41%   Direction: 230°SW
Pressure: 30"   Gusts: NA
Location:  31.67°S, 116.02°E
Report Text: YPEA 230600Z AUTO 23015KT //// // SCT048 22/08 Q1016
Loading
Personal Weather Stations






























Interactive Weather Map New forecast layout! Learn more

10-Day Weather Forecast

Advertisements
Track Severe Weather on mobile